Time,TemperatureF,DewpointF,PressureIn,WindDirection,WindDirectionDegrees,WindSpeedMPH,WindSpeedGustMPH,Humidity,HourlyPrecipIn,Conditions,Clouds,dailyrainin,SolarRadiationWatts/m^2,SoftwareType,DateUTC
2013-09-02 00:04:00,60.4,57.5,29.82,WNW,298,0.0,0.0,90,0.00,,,0.00,0,Wunderground v.1.15,2013-09-02 05:04:00,
2013-09-02 00:09:00,60.7,58.1,29.82,WNW,298,0.0,0.0,91,0.00,,,0.00,0,Wunderground v.1.15,2013-09-02 05:09:00,
2013-09-02 00:14:00,61.1,58.1,29.82,WNW,298,0.0,0.0,90,0.00,,,0.00,0,Wunderground v.1.15,2013-09-02 05:14:00,
2013-09-02 00:20:00,61.5,58.2,29.82,WNW,298,0.0,0.0,89,0.00,,,0.00,0,Wunderground v.1.15,2013-09-02 05:20:00,
2013-09-02 00:25:00,61.9,58.6,29.82,WNW,298,0.0,1.0,89,0.00,,,0.00,0,Wunderground v.1.15,2013-09-02 05:25:00,
2013-09-02 00:30:00,62.3,58.7,29.82,WNW,298,0.0,0.0,88,0.00,,,0.00,0,Wunderground v.1.15,2013-09-02 05:30:00,
2013-09-02 00:36:00,62.8,58.9,29.82,WNW,298,3.0,5.0,87,0.00,,,0.00,0,Wunderground v.1.15,2013-09-02 05:36:00,
2013-09-02 00:41:00,63.2,58.9,29.82,WNW,297,0.0,3.0,86,0.00,,,0.00,0,Wunderground v.1.15,2013-09-02 05:41:00,
2013-09-02 00:46:00,63.7,59.1,29.82,WNW,300,2.0,3.0,85,0.00,,,0.00,0,Wunderground v.1.15,2013-09-02 05:46:00,
2013-09-02 00:52:00,64.2,59.3,29.82,WNW,299,0.0,2.0,84,0.00,,,0.00,0,Wunderground v.1.15,2013-09-02 05:52:00,
2013-09-02 00:58:00,64.5,59.6,29.82,WNW,299,1.0,2.0,84,0.00,,,0.00,0,Wunderground v.1.15,2013-09-02 05:58:00,
2013-09-02 01:03:00,64.6,59.3,29.82,WNW,299,0.0,1.0,83,0.00,,,0.00,0,Wunderground v.1.15,2013-09-02 06:03:00,
2013-09-02 01:09:00,64.4,59.1,29.83,WNW,299,0.0,1.0,83,0.00,,,0.00,0,Wunderground v.1.15,2013-09-02 06:09:00,
2013-09-02 01:14:00,64.3,59.4,29.83,WNW,299,0.0,1.0,84,0.00,,,0.00,0,Wunderground v.1.15,2013-09-02 06:14:00,
2013-09-02 01:19:00,64.1,59.2,29.83,WNW,299,0.0,1.0,84,0.00,,,0.00,0,Wunderground v.1.15,2013-09-02 06:19:00,
2013-09-02 01:25:00,63.8,58.9,29.83,WNW,299,0.0,0.0,84,0.00,,,0.00,0,Wunderground v.1.15,2013-09-02 06:25:00,
2013-09-02 01:30:00,63.7,58.8,29.83,WNW,299,1.0,1.0,84,0.00,,,0.00,0,Wunderground v.1.15,2013-09-02 06:30:00,
2013-09-02 01:35:00,63.5,58.9,29.83,WNW,299,0.0,2.0,85,0.00,,,0.00,0,Wunderground v.1.15,2013-09-02 06:35:00,
2013-09-02 01:40:00,63.4,58.8,29.83,WNW,299,0.0,2.0,85,0.00,,,0.00,0,Wunderground v.1.15,2013-09-02 06:40:00,
2013-09-02 01:46:00,63.4,58.8,29.83,WNW,299,1.0,1.0,85,0.00,,,0.00,0,Wunderground v.1.15,2013-09-02 06:46:00,
2013-09-02 01:51:00,63.3,59.0,29.83,WNW,299,1.0,1.0,86,0.00,,,0.00,0,Wunderground v.1.15,2013-09-02 06:51:00,
2013-09-02 01:57:00,63.4,59.1,29.84,WNW,299,1.0,1.0,86,0.00,,,0.00,0,Wunderground v.1.15,2013-09-02 06:57:00,
2013-09-02 02:02:00,63.4,59.1,29.83,WNW,299,0.0,1.0,86,0.00,,,0.00,0,Wunderground v.1.15,2013-09-02 07:02:00,
2013-09-02 02:07:00,63.4,59.1,29.83,WNW,299,1.0,5.0,86,0.00,,,0.00,0,Wunderground v.1.15,2013-09-02 07:07:00,
2013-09-02 02:12:00,63.4,59.1,29.84,WNW,299,0.0,1.0,86,0.00,,,0.00,0,Wunderground v.1.15,2013-09-02 07:12:00,
2013-09-02 02:17:00,63.3,59.0,29.84,WNW,299,0.0,1.0,86,0.00,,,0.00,0,Wunderground v.1.15,2013-09-02 07:17:00,
2013-09-02 02:21:00,63.3,59.0,29.84,WNW,299,1.0,1.0,86,0.00,,,0.00,0,Wunderground v.1.15,2013-09-02 07:21:00,
2013-09-02 02:26:00,63.2,58.9,29.84,WNW,299,0.0,2.0,86,0.00,,,0.00,0,Wunderground v.1.15,2013-09-02 07:26:00,
2013-09-02 02:31:00,63.2,58.9,29.84,WNW,299,0.0,1.0,86,0.00,,,0.00,0,Wunderground v.1.15,2013-09-02 07:31:00,
2013-09-02 02:37:00,63.1,59.2,29.84,WNW,299,0.0,2.0,87,0.00,,,0.00,0,Wunderground v.1.15,2013-09-02 07:37:00,
2013-09-02 02:42:00,63.1,59.2,29.84,WNW,299,0.0,5.0,87,0.00,,,0.00,0,Wunderground v.1.15,2013-09-02 07:42:00,
2013-09-02 02:47:00,63.1,59.2,29.84,WNW,299,2.0,5.0,87,0.00,,,0.00,0,Wunderground v.1.15,2013-09-02 07:47:00,
2013-09-02 02:52:00,63.2,59.3,29.84,WNW,301,3.0,4.0,87,0.00,,,0.00,0,Wunderground v.1.15,2013-09-02 07:52:00,
2013-09-02 02:57:00,63.2,59.3,29.84,WNW,301,2.0,4.0,87,0.00,,,0.00,0,Wunderground v.1.15,2013-09-02 07:57:00,
2013-09-02 03:02:00,63.2,59.3,29.84,WNW,301,0.0,3.0,87,0.00,,,0.00,0,Wunderground v.1.15,2013-09-02 08:02:00,
2013-09-02 03:07:00,63.2,59.3,29.84,WNW,301,1.0,3.0,87,0.00,,,0.00,0,Wunderground v.1.15,2013-09-02 08:07:00,
2013-09-02 03:12:00,63.3,59.4,29.84,WNW,302,2.0,4.0,87,0.00,,,0.00,0,Wunderground v.1.15,2013-09-02 08:12:00,
2013-09-02 03:17:00,63.3,59.4,29.84,WNW,302,2.0,5.0,87,0.00,,,0.00,0,Wunderground v.1.15,2013-09-02 08:17:00,
2013-09-02 03:22:00,63.2,59.3,29.84,WNW,302,2.0,4.0,87,0.00,,,0.00,0,Wunderground v.1.15,2013-09-02 08:22:00,
2013-09-02 03:27:00,63.2,59.6,29.85,WNW,302,1.0,4.0,88,0.00,,,0.00,0,Wunderground v.1.15,2013-09-02 08:27:00,
2013-09-02 03:32:00,63.2,59.6,29.85,WNW,299,3.0,5.0,88,0.00,,,0.00,0,Wunderground v.1.15,2013-09-02 08:32:00,
2013-09-02 03:37:00,63.3,59.7,29.85,NW,306,0.0,6.0,88,0.00,,,0.00,0,Wunderground v.1.15,2013-09-02 08:37:00,
2013-09-02 03:42:00,63.2,59.6,29.85,NW,306,0.0,3.0,88,0.00,,,0.00,0,Wunderground v.1.15,2013-09-02 08:42:00,
2013-09-02 03:47:00,63.2,59.6,29.85,NW,306,0.0,3.0,88,0.00,,,0.00,0,Wunderground v.1.15,2013-09-02 08:47:00,
2013-09-02 03:52:00,63.1,59.5,29.86,NW,306,1.0,3.0,88,0.00,,,0.00,0,Wunderground v.1.15,2013-09-02 08:52:00,
2013-09-02 03:57:00,63.0,59.4,29.85,NW,306,0.0,3.0,88,0.00,,,0.00,0,Wunderground v.1.15,2013-09-02 08:57:00,
2013-09-02 04:02:00,62.9,59.3,29.86,NW,306,0.0,1.0,88,0.00,,,0.00,0,Wunderground v.1.15,2013-09-02 09:02:00,
2013-09-02 04:07:00,62.7,59.1,29.86,NW,306,0.0,3.0,88,0.00,,,0.00,0,Wunderground v.1.15,2013-09-02 09:07:00,
2013-09-02 04:12:00,62.6,59.0,29.86,NW,306,0.0,2.0,88,0.00,,,0.00,0,Wunderground v.1.15,2013-09-02 09:12:00,
2013-09-02 04:17:00,62.4,58.8,29.86,NW,306,0.0,2.0,88,0.00,,,0.00,0,Wunderground v.1.15,2013-09-02 09:17:00,
2013-09-02 04:22:00,62.2,58.6,29.86,NW,306,0.0,0.0,88,0.00,,,0.00,0,Wunderground v.1.15,2013-09-02 09:22:00,
2013-09-02 04:27:00,62.0,58.4,29.86,NW,306,0.0,0.0,88,0.00,,,0.00,0,Wunderground v.1.15,2013-09-02 09:27:00,
2013-09-02 04:32:00,61.7,58.1,29.86,NW,306,0.0,0.0,88,0.00,,,0.00,0,Wunderground v.1.15,2013-09-02 09:32:00,
2013-09-02 04:37:00,61.5,57.9,29.86,NW,306,0.0,0.0,88,0.00,,,0.00,0,Wunderground v.1.15,2013-09-02 09:37:00,
2013-09-02 04:42:00,61.3,58.0,29.86,NW,306,0.0,0.0,89,0.00,,,0.00,0,Wunderground v.1.15,2013-09-02 09:42:00,
2013-09-02 04:48:00,61.1,57.8,29.86,NW,306,0.0,0.0,89,0.00,,,0.00,0,Wunderground v.1.15,2013-09-02 09:48:00,
2013-09-02 04:53:00,60.9,57.6,29.86,NW,306,0.0,0.0,89,0.00,,,0.00,0,Wunderground v.1.15,2013-09-02 09:53:00,
2013-09-02 04:58:00,60.7,57.7,29.87,NW,306,0.0,0.0,90,0.00,,,0.00,0,Wunderground v.1.15,2013-09-02 09:58:00,
2013-09-02 05:03:00,60.6,57.7,29.87,NW,306,0.0,0.0,90,0.00,,,0.00,0,Wunderground v.1.15,2013-09-02 10:03:00,
2013-09-02 05:08:00,60.4,57.5,29.87,NW,306,0.0,0.0,90,0.00,,,0.00,0,Wunderground v.1.15,2013-09-02 10:08:00,
2013-09-02 05:13:00,60.1,57.2,29.87,NW,306,0.0,0.0,90,0.00,,,0.00,0,Wunderground v.1.15,2013-09-02 10:13:00,
2013-09-02 05:18:00,60.0,57.4,29.87,NW,306,0.0,0.0,91,0.00,,,0.00,0,Wunderground v.1.15,2013-09-02 10:18:00,
2013-09-02 05:23:00,59.8,57.2,29.88,NW,306,0.0,0.0,91,0.00,,,0.00,0,Wunderground v.1.15,2013-09-02 10:23:00,
2013-09-02 05:28:00,60.0,57.7,29.88,NW,306,0.0,3.0,92,0.00,,,0.00,0,Wunderground v.1.15,2013-09-02 10:28:00,
2013-09-02 05:33:00,60.3,58.3,29.88,NW,306,1.0,2.0,93,0.00,,,0.00,0,Wunderground v.1.15,2013-09-02 10:33:00,
2013-09-02 05:38:00,60.4,58.4,29.88,NW,306,0.0,6.0,93,0.00,,,0.00,0,Wunderground v.1.15,2013-09-02 10:38:00,
2013-09-02 05:43:00,60.6,58.6,29.88,NW,306,0.0,4.0,93,0.00,,,0.00,0,Wunderground v.1.15,2013-09-02 10:43:00,
2013-09-02 05:48:00,60.8,58.8,29.88,NW,306,0.0,4.0,93,0.00,,,0.00,0,Wunderground v.1.15,2013-09-02 10:48:00,
2013-09-02 05:53:00,60.9,58.6,29.88,NW,306,0.0,2.0,92,0.00,,,0.00,0,Wunderground v.1.15,2013-09-02 10:53:00,
2013-09-02 05:58:00,61.1,59.1,29.89,NW,306,0.0,2.0,93,0.00,,,0.00,0,Wunderground v.1.15,2013-09-02 10:58:00,
2013-09-02 06:03:00,61.2,59.2,29.89,NW,306,0.0,0.0,93,0.00,,,0.00,0,Wunderground v.1.15,2013-09-02 11:03:00,
2013-09-02 06:08:00,61.2,58.9,29.89,NW,306,0.0,0.0,92,0.00,,,0.00,0,Wunderground v.1.15,2013-09-02 11:08:00,
2013-09-02 06:13:00,61.2,58.9,29.89,NW,306,0.0,0.0,92,0.00,,,0.00,0,Wunderground v.1.15,2013-09-02 11:13:00,
2013-09-02 06:18:00,61.1,58.8,29.89,NW,306,0.0,1.0,92,0.00,,,0.00,0,Wunderground v.1.15,2013-09-02 11:18:00,
2013-09-02 06:23:00,61.0,58.7,29.89,NW,306,0.0,0.0,92,0.00,,,0.00,0,Wunderground v.1.15,2013-09-02 11:23:00,
2013-09-02 06:28:00,61.0,58.7,29.89,NW,306,0.0,0.0,92,0.00,,,0.00,0,Wunderground v.1.15,2013-09-02 11:28:00,
2013-09-02 06:33:00,60.9,58.6,29.90,NW,306,0.0,0.0,92,0.00,,,0.00,5,Wunderground v.1.15,2013-09-02 11:33:00,
2013-09-02 06:38:00,60.9,58.6,29.90,NW,306,0.0,0.0,92,0.00,,,0.00,9,Wunderground v.1.15,2013-09-02 11:38:00,
2013-09-02 06:43:00,60.9,58.6,29.90,NW,306,0.0,0.0,92,0.00,,,0.00,11,Wunderground v.1.15,2013-09-02 11:43:00,
2013-09-02 06:48:00,60.9,58.6,29.91,NW,306,0.0,0.0,92,0.00,,,0.00,18,Wunderground v.1.15,2013-09-02 11:48:00,
2013-09-02 06:53:00,61.1,59.1,29.91,NW,306,0.0,4.0,93,0.00,,,0.00,21,Wunderground v.1.15,2013-09-02 11:53:00,
2013-09-02 06:58:00,61.3,59.3,29.91,NW,306,2.0,5.0,93,0.00,,,0.00,21,Wunderground v.1.15,2013-09-02 11:58:00,
2013-09-02 07:03:00,61.5,59.2,29.91,WNW,303,6.0,6.0,92,0.00,,,0.00,25,Wunderground v.1.15,2013-09-02 12:03:00,
2013-09-02 07:08:00,61.6,59.3,29.92,WNW,298,5.0,9.0,92,0.00,,,0.00,32,Wunderground v.1.15,2013-09-02 12:08:00,
2013-09-02 07:13:00,61.7,58.7,29.92,WNW,300,3.0,8.0,90,0.00,,,0.00,39,Wunderground v.1.15,2013-09-02 12:13:00,
2013-09-02 07:18:00,61.8,58.8,29.92,NW,306,3.0,8.0,90,0.00,,,0.00,33,Wunderground v.1.15,2013-09-02 12:18:00,
2013-09-02 07:23:00,61.7,58.7,29.92,NW,317,2.0,6.0,90,0.00,,,0.00,69,Wunderground v.1.15,2013-09-02 12:23:00,
2013-09-02 07:28:00,61.7,58.7,29.92,NW,325,2.0,6.0,90,0.00,,,0.00,74,Wunderground v.1.15,2013-09-02 12:28:00,
2013-09-02 07:33:00,61.7,58.7,29.92,NW,316,4.0,6.0,90,0.00,,,0.00,79,Wunderground v.1.15,2013-09-02 12:33:00,
2013-09-02 07:38:00,61.7,58.4,29.92,NNW,331,2.0,7.0,89,0.00,,,0.00,104,Wunderground v.1.15,2013-09-02 12:38:00,
2013-09-02 07:43:00,61.7,58.4,29.92,NNW,348,0.0,10.0,89,0.00,,,0.00,90,Wunderground v.1.15,2013-09-02 12:43:00,
2013-09-02 07:48:00,61.7,58.4,29.92,NW,325,2.0,10.0,89,0.00,,,0.00,83,Wunderground v.1.15,2013-09-02 12:48:00,
2013-09-02 07:53:00,61.7,58.1,29.92,NNW,329,2.0,10.0,88,0.00,,,0.00,109,Wunderground v.1.15,2013-09-02 12:53:00,
2013-09-02 07:58:00,61.6,57.7,29.92,NNE,24,6.0,10.0,87,0.00,,,0.00,97,Wunderground v.1.15,2013-09-02 12:58:00,
2013-09-02 08:03:00,61.6,57.7,29.92,NE,38,4.0,9.0,87,0.00,,,0.00,95,Wunderground v.1.15,2013-09-02 13:03:00,
2013-09-02 08:08:00,61.6,57.7,29.93,NW,314,4.0,9.0,87,0.00,,,0.00,76,Wunderground v.1.15,2013-09-02 13:08:00,
2013-09-02 08:13:00,61.6,57.7,29.93,NW,304,5.0,9.0,87,0.00,,,0.00,118,Wunderground v.1.15,2013-09-02 13:13:00,
2013-09-02 08:18:00,61.5,57.6,29.93,NW,325,6.0,10.0,87,0.00,,,0.00,165,Wunderground v.1.15,2013-09-02 13:18:00,
2013-09-02 08:23:00,61.7,57.8,29.93,NW,325,4.0,10.0,87,0.00,,,0.00,374,Wunderground v.1.15,2013-09-02 13:23:00,
2013-09-02 08:28:00,62.2,58.3,29.93,NW,324,3.0,10.0,87,0.00,,,0.00,197,Wunderground v.1.15,2013-09-02 13:28:00,
2013-09-02 08:33:00,62.4,58.2,29.93,NNW,339,4.0,12.0,86,0.00,,,0.00,229,Wunderground v.1.15,2013-09-02 13:33:00,
2013-09-02 08:39:00,62.5,57.9,29.93,NW,313,3.0,12.0,85,0.00,,,0.00,227,Wunderground v.1.15,2013-09-02 13:39:00,
2013-09-02 08:43:00,62.6,58.4,29.93,NW,324,7.0,11.0,86,0.00,,,0.00,211,Wunderground v.1.15,2013-09-02 13:43:00,
2013-09-02 08:48:00,62.7,58.1,29.93,North,5,8.0,11.0,85,0.00,,,0.00,209,Wunderground v.1.15,2013-09-02 13:48:00,
2013-09-02 08:54:00,62.7,57.8,29.93,West,273,5.0,11.0,84,0.00,,,0.00,192,Wunderground v.1.15,2013-09-02 13:54:00,
2013-09-02 08:59:00,62.7,57.8,29.93,NW,325,1.0,11.0,84,0.00,,,0.00,209,Wunderground v.1.15,2013-09-02 13:59:00,
2013-09-02 09:04:00,62.6,57.7,29.93,NNE,17,4.0,8.0,84,0.00,,,0.00,221,Wunderground v.1.15,2013-09-02 14:04:00,
2013-09-02 09:09:00,62.7,57.8,29.94,NNE,13,4.0,8.0,84,0.00,,,0.00,234,Wunderground v.1.15,2013-09-02 14:09:00,
2013-09-02 09:14:00,62.9,58.0,29.94,NW,313,2.0,6.0,84,0.00,,,0.00,197,Wunderground v.1.15,2013-09-02 14:14:00,
2013-09-02 09:19:00,63.0,57.4,29.94,NNW,344,3.0,10.0,82,0.00,,,0.00,202,Wunderground v.1.15,2013-09-02 14:19:00,
2013-09-02 09:24:00,62.9,57.3,29.94,NW,315,6.0,11.0,82,0.00,,,0.00,248,Wunderground v.1.15,2013-09-02 14:24:00,
2013-09-02 09:29:00,63.0,57.8,29.94,North,355,2.0,11.0,83,0.00,,,0.00,278,Wunderground v.1.15,2013-09-02 14:29:00,
2013-09-02 09:34:00,63.2,57.9,29.94,North,5,1.0,4.0,83,0.00,,,0.00,297,Wunderground v.1.15,2013-09-02 14:34:00,
2013-09-02 09:39:00,63.4,57.5,29.95,NW,309,5.0,8.0,81,0.00,,,0.00,336,Wunderground v.1.15,2013-09-02 14:39:00,
2013-09-02 09:44:00,63.5,57.2,29.95,WNW,302,3.0,11.0,80,0.00,,,0.00,308,Wunderground v.1.15,2013-09-02 14:44:00,
2013-09-02 09:49:00,63.6,57.3,29.95,NW,311,3.0,13.0,80,0.00,,,0.00,332,Wunderground v.1.15,2013-09-02 14:49:00,
2013-09-02 09:54:00,63.8,57.5,29.95,NW,304,2.0,7.0,80,0.00,,,0.00,323,Wunderground v.1.15,2013-09-02 14:54:00,
2013-09-02 09:59:00,64.1,57.5,29.95,North,9,2.0,7.0,79,0.00,,,0.00,371,Wunderground v.1.15,2013-09-02 14:59:00,
2013-09-02 10:04:00,64.4,57.7,29.95,NNE,26,4.0,8.0,79,0.00,,,0.00,302,Wunderground v.1.15,2013-09-02 15:04:00,
2013-09-02 10:09:00,64.8,57.4,29.95,North,360,7.0,11.0,77,0.00,,,0.00,302,Wunderground v.1.15,2013-09-02 15:09:00,
2013-09-02 10:14:00,65.0,57.2,29.95,NNW,342,0.0,10.0,76,0.00,,,0.00,299,Wunderground v.1.15,2013-09-02 15:14:00,
2013-09-02 10:19:00,64.9,56.8,29.95,North,9,2.0,12.0,75,0.00,,,0.00,221,Wunderground v.1.15,2013-09-02 15:19:00,
2013-09-02 10:24:00,64.7,57.0,29.96,ENE,61,3.0,7.0,76,0.00,,,0.00,334,Wunderground v.1.15,2013-09-02 15:24:00,
2013-09-02 10:29:00,64.8,56.3,29.96,NNE,23,1.0,14.0,74,0.00,,,0.00,359,Wunderground v.1.15,2013-09-02 15:29:00,
2013-09-02 10:34:00,65.0,56.9,29.96,NNW,338,1.0,6.0,75,0.00,,,0.00,278,Wunderground v.1.15,2013-09-02 15:34:00,
2013-09-02 10:39:00,65.1,57.0,29.95,NW,308,2.0,10.0,75,0.00,,,0.00,265,Wunderground v.1.15,2013-09-02 15:39:00,
2013-09-02 10:44:00,65.2,57.1,29.96,West,276,3.0,7.0,75,0.00,,,0.00,311,Wunderground v.1.15,2013-09-02 15:44:00,
2013-09-02 10:49:00,65.2,56.7,29.96,North,10,7.0,9.0,74,0.00,,,0.00,1107,Wunderground v.1.15,2013-09-02 15:49:00,
2013-09-02 10:54:00,65.6,56.3,29.96,NW,321,2.0,11.0,72,0.00,,,0.00,345,Wunderground v.1.15,2013-09-02 15:54:00,
2013-09-02 10:59:00,65.7,56.4,29.96,NW,308,1.0,11.0,72,0.00,,,0.00,355,Wunderground v.1.15,2013-09-02 15:59:00,
2013-09-02 11:04:00,65.8,56.5,29.96,NNE,12,4.0,9.0,72,0.00,,,0.00,350,Wunderground v.1.15,2013-09-02 16:04:00,
2013-09-02 11:09:00,65.8,56.5,29.96,NW,313,4.0,12.0,72,0.00,,,0.00,538,Wunderground v.1.15,2013-09-02 16:09:00,
2013-09-02 11:15:00,65.8,56.1,29.96,NW,309,4.0,10.0,71,0.00,,,0.00,346,Wunderground v.1.15,2013-09-02 16:15:00,
2013-09-02 11:20:00,65.7,56.4,29.96,North,5,4.0,5.0,72,0.00,,,0.00,636,Wunderground v.1.15,2013-09-02 16:20:00,
2013-09-02 11:25:00,65.8,56.1,29.96,North,9,4.0,11.0,71,0.00,,,0.00,587,Wunderground v.1.15,2013-09-02 16:25:00,
2013-09-02 11:30:00,66.0,56.3,29.96,NW,322,3.0,5.0,71,0.00,,,0.00,425,Wunderground v.1.15,2013-09-02 16:30:00,
2013-09-02 11:35:00,66.1,55.6,29.96,North,5,3.0,10.0,69,0.00,,,0.00,390,Wunderground v.1.15,2013-09-02 16:35:00,
2013-09-02 11:40:00,65.9,55.0,29.97,NW,319,3.0,9.0,68,0.00,,,0.00,406,Wunderground v.1.15,2013-09-02 16:40:00,
2013-09-02 11:45:00,66.1,56.0,29.97,North,360,4.0,9.0,70,0.00,,,0.00,424,Wunderground v.1.15,2013-09-02 16:45:00,
2013-09-02 11:50:00,66.4,55.1,29.97,North,5,4.0,4.0,67,0.00,,,0.00,418,Wunderground v.1.15,2013-09-02 16:50:00,
2013-09-02 11:55:00,66.4,55.1,29.97,NW,311,3.0,9.0,67,0.00,,,0.00,334,Wunderground v.1.15,2013-09-02 16:55:00,
2013-09-02 12:00:00,66.3,56.2,29.97,North,5,10.0,10.0,70,0.00,,,0.00,383,Wunderground v.1.15,2013-09-02 17:00:00,
2013-09-02 12:05:00,66.2,56.1,29.97,North,5,5.0,10.0,70,0.00,,,0.00,371,Wunderground v.1.15,2013-09-02 17:05:00,
2013-09-02 12:10:00,66.1,55.6,29.97,NW,313,0.0,3.0,69,0.00,,,0.00,316,Wunderground v.1.15,2013-09-02 17:10:00,
2013-09-02 12:15:00,65.9,56.2,29.97,North,360,3.0,8.0,71,0.00,,,0.00,251,Wunderground v.1.15,2013-09-02 17:15:00,
2013-09-02 12:20:00,65.7,56.4,29.97,NNE,28,7.0,7.0,72,0.00,,,0.00,287,Wunderground v.1.15,2013-09-02 17:20:00,
2013-09-02 12:25:00,65.6,56.3,29.97,NW,311,1.0,7.0,72,0.00,,,0.00,329,Wunderground v.1.15,2013-09-02 17:25:00,
2013-09-02 12:30:00,65.5,56.2,29.97,NNW,340,3.0,7.0,72,0.00,,,0.00,381,Wunderground v.1.15,2013-09-02 17:30:00,
2013-09-02 12:35:00,65.6,56.7,29.97,NW,313,3.0,7.0,73,0.00,,,0.00,413,Wunderground v.1.15,2013-09-02 17:35:00,
2013-09-02 12:40:00,65.8,56.1,29.97,NW,311,5.0,5.0,71,0.00,,,0.00,327,Wunderground v.1.15,2013-09-02 17:40:00,
2013-09-02 12:45:00,65.9,56.6,29.97,NW,312,2.0,7.0,72,0.00,,,0.00,306,Wunderground v.1.15,2013-09-02 17:45:00,
2013-09-02 12:51:00,65.9,56.2,29.97,North,5,4.0,4.0,71,0.00,,,0.00,311,Wunderground v.1.15,2013-09-02 17:51:00,
2013-09-02 12:56:00,65.8,55.7,29.97,NW,309,2.0,8.0,70,0.00,,,0.00,315,Wunderground v.1.15,2013-09-02 17:56:00,
2013-09-02 13:01:00,65.7,56.0,29.97,WNW,298,3.0,5.0,71,0.00,,,0.00,338,Wunderground v.1.15,2013-09-02 18:01:00,
2013-09-02 13:06:00,65.7,55.6,29.97,West,262,5.0,9.0,70,0.00,,,0.00,290,Wunderground v.1.15,2013-09-02 18:06:00,
2013-09-02 13:11:00,65.6,55.9,29.97,NW,318,5.0,7.0,71,0.00,,,0.00,272,Wunderground v.1.15,2013-09-02 18:11:00,
2013-09-02 13:16:00,65.6,56.3,29.97,NNW,346,3.0,9.0,72,0.00,,,0.00,360,Wunderground v.1.15,2013-09-02 18:16:00,
2013-09-02 13:21:00,65.8,55.7,29.97,NNW,336,5.0,7.0,70,0.00,,,0.00,468,Wunderground v.1.15,2013-09-02 18:21:00,
2013-09-02 13:26:00,66.1,55.6,29.97,NNE,26,5.0,10.0,69,0.00,,,0.00,452,Wunderground v.1.15,2013-09-02 18:26:00,
2013-09-02 13:31:00,66.4,56.3,29.97,North,360,4.0,7.0,70,0.00,,,0.00,452,Wunderground v.1.15,2013-09-02 18:31:00,
2013-09-02 13:36:00,66.6,56.5,29.97,WNW,298,7.0,9.0,70,0.00,,,0.00,446,Wunderground v.1.15,2013-09-02 18:36:00,
2013-09-02 13:41:00,66.7,55.8,29.97,NW,323,6.0,8.0,68,0.00,,,0.00,417,Wunderground v.1.15,2013-09-02 18:41:00,
2013-09-02 13:46:00,66.8,55.9,29.97,WNW,288,1.0,8.0,68,0.00,,,0.00,512,Wunderground v.1.15,2013-09-02 18:46:00,
2013-09-02 13:51:00,67.0,56.5,29.96,NW,319,4.0,8.0,69,0.00,,,0.00,512,Wunderground v.1.15,2013-09-02 18:51:00,
2013-09-02 13:56:00,67.3,56.4,29.96,WNW,299,2.0,9.0,68,0.00,,,0.00,490,Wunderground v.1.15,2013-09-02 18:56:00,
2013-09-02 14:01:00,67.5,56.6,29.96,NNW,331,4.0,7.0,68,0.00,,,0.00,473,Wunderground v.1.15,2013-09-02 19:01:00,
2013-09-02 14:06:00,67.6,57.1,29.96,NW,307,4.0,7.0,69,0.00,,,0.00,489,Wunderground v.1.15,2013-09-02 19:06:00,
2013-09-02 14:11:00,67.9,56.5,29.96,WNW,296,5.0,5.0,67,0.00,,,0.00,561,Wunderground v.1.15,2013-09-02 19:11:00,
2013-09-02 14:16:00,68.1,57.1,29.96,North,5,2.0,8.0,68,0.00,,,0.00,403,Wunderground v.1.15,2013-09-02 19:16:00,
2013-09-02 14:21:00,68.1,55.9,29.96,NNE,15,0.0,8.0,65,0.00,,,0.00,413,Wunderground v.1.15,2013-09-02 19:21:00,
2013-09-02 14:26:00,68.3,56.5,29.96,NW,314,7.0,8.0,66,0.00,,,0.00,520,Wunderground v.1.15,2013-09-02 19:26:00,
2013-09-02 14:31:00,68.4,56.2,29.96,WNW,302,1.0,6.0,65,0.00,,,0.00,448,Wunderground v.1.15,2013-09-02 19:31:00,
2013-09-02 14:36:00,68.5,55.8,29.96,NW,310,3.0,6.0,64,0.00,,,0.00,373,Wunderground v.1.15,2013-09-02 19:36:00,
2013-09-02 14:41:00,68.4,56.2,29.96,NNE,17,2.0,6.0,65,0.00,,,0.00,401,Wunderground v.1.15,2013-09-02 19:41:00,
2013-09-02 14:46:00,68.2,56.0,29.95,North,5,2.0,9.0,65,0.00,,,0.00,383,Wunderground v.1.15,2013-09-02 19:46:00,
2013-09-02 14:51:00,68.3,56.5,29.96,NW,321,2.0,6.0,66,0.00,,,0.00,559,Wunderground v.1.15,2013-09-02 19:51:00,
2013-09-02 14:56:00,68.7,56.0,29.96,NW,322,7.0,10.0,64,0.00,,,0.00,397,Wunderground v.1.15,2013-09-02 19:56:00,
2013-09-02 15:01:00,68.8,56.6,29.96,West,272,7.0,7.0,65,0.00,,,0.00,390,Wunderground v.1.15,2013-09-02 20:01:00,
2013-09-02 15:06:00,69.0,57.6,29.96,NW,323,4.0,7.0,67,0.00,,,0.00,1025,Wunderground v.1.15,2013-09-02 20:06:00,
2013-09-02 15:11:00,69.5,55.9,29.96,NW,321,9.0,9.0,62,0.00,,,0.00,473,Wunderground v.1.15,2013-09-02 20:11:00,
2013-09-02 15:16:00,69.8,55.7,29.96,WNW,302,8.0,13.0,61,0.00,,,0.00,496,Wunderground v.1.15,2013-09-02 20:16:00,
2013-09-02 15:21:00,69.7,55.6,29.95,NW,319,7.0,14.0,61,0.00,,,0.00,473,Wunderground v.1.15,2013-09-02 20:21:00,
2013-09-02 15:27:00,69.5,56.3,29.95,NW,315,10.0,14.0,63,0.00,,,0.00,591,Wunderground v.1.15,2013-09-02 20:27:00,
2013-09-02 15:32:00,69.6,56.4,29.95,SSW,212,2.0,7.0,63,0.00,,,0.00,489,Wunderground v.1.15,2013-09-02 20:32:00,
2013-09-02 15:37:00,69.7,56.1,29.95,NW,315,4.0,12.0,62,0.00,,,0.00,394,Wunderground v.1.15,2013-09-02 20:37:00,
2013-09-02 15:42:00,69.8,56.6,29.95,WNW,293,3.0,5.0,63,0.00,,,0.00,436,Wunderground v.1.15,2013-09-02 20:42:00,
2013-09-02 15:47:00,69.7,55.6,29.95,NW,316,0.0,9.0,61,0.00,,,0.00,524,Wunderground v.1.15,2013-09-02 20:47:00,
2013-09-02 15:52:00,69.8,56.2,29.95,NW,317,6.0,11.0,62,0.00,,,0.00,696,Wunderground v.1.15,2013-09-02 20:52:00,
2013-09-02 15:57:00,69.8,56.2,29.95,NNW,331,4.0,11.0,62,0.00,,,0.00,371,Wunderground v.1.15,2013-09-02 20:57:00,
2013-09-02 16:02:00,69.6,56.4,29.95,NW,312,7.0,9.0,63,0.00,,,0.00,371,Wunderground v.1.15,2013-09-02 21:02:00,
2013-09-02 16:07:00,69.5,56.3,29.95,NW,316,3.0,12.0,63,0.00,,,0.00,262,Wunderground v.1.15,2013-09-02 21:07:00,
2013-09-02 16:12:00,69.4,55.4,29.95,WNW,284,2.0,8.0,61,0.00,,,0.00,462,Wunderground v.1.15,2013-09-02 21:12:00,
2013-09-02 16:17:00,69.5,56.8,29.95,North,355,0.0,8.0,64,0.00,,,0.00,687,Wunderground v.1.15,2013-09-02 21:17:00,
2013-09-02 16:22:00,69.7,55.6,29.95,NW,315,3.0,12.0,61,0.00,,,0.00,747,Wunderground v.1.15,2013-09-02 21:22:00,
2013-09-02 16:27:00,70.2,56.1,29.95,NW,325,2.0,12.0,61,0.00,,,0.00,659,Wunderground v.1.15,2013-09-02 21:27:00,
2013-09-02 16:32:00,70.5,55.9,29.95,North,11,6.0,8.0,60,0.00,,,0.00,642,Wunderground v.1.15,2013-09-02 21:32:00,
2013-09-02 16:37:00,70.5,56.9,29.95,North,355,6.0,9.0,62,0.00,,,0.00,207,Wunderground v.1.15,2013-09-02 21:37:00,
2013-09-02 16:42:00,70.2,56.6,29.95,NW,310,5.0,8.0,62,0.00,,,0.00,580,Wunderground v.1.15,2013-09-02 21:42:00,
2013-09-02 16:47:00,69.8,56.2,29.95,NNE,14,5.0,8.0,62,0.00,,,0.00,476,Wunderground v.1.15,2013-09-02 21:47:00,
2013-09-02 16:52:00,69.6,56.0,29.95,NW,319,5.0,8.0,62,0.00,,,0.00,452,Wunderground v.1.15,2013-09-02 21:52:00,
2013-09-02 16:57:00,69.6,55.1,29.95,NW,311,1.0,9.0,60,0.00,,,0.00,445,Wunderground v.1.15,2013-09-02 21:57:00,
2013-09-02 17:03:00,69.5,55.5,29.95,NW,321,10.0,10.0,61,0.00,,,0.00,364,Wunderground v.1.15,2013-09-02 22:03:00,
2013-09-02 17:08:00,69.4,55.4,29.95,WNW,301,4.0,10.0,61,0.00,,,0.00,415,Wunderground v.1.15,2013-09-02 22:08:00,
2013-09-02 17:13:00,69.2,55.2,29.95,NW,308,4.0,9.0,61,0.00,,,0.00,387,Wunderground v.1.15,2013-09-02 22:13:00,
2013-09-02 17:18:00,69.3,55.3,29.95,NW,321,2.0,9.0,61,0.00,,,0.00,366,Wunderground v.1.15,2013-09-02 22:18:00,
2013-09-02 17:23:00,69.4,54.9,29.95,NW,316,5.0,9.0,60,0.00,,,0.00,348,Wunderground v.1.15,2013-09-02 22:23:00,
2013-09-02 17:28:00,69.4,55.4,29.94,NW,320,4.0,10.0,61,0.00,,,0.00,339,Wunderground v.1.15,2013-09-02 22:28:00,
2013-09-02 17:33:00,69.3,55.3,29.95,NW,321,2.0,10.0,61,0.00,,,0.00,330,Wunderground v.1.15,2013-09-02 22:33:00,
2013-09-02 17:38:00,69.0,54.5,29.95,WNW,296,5.0,10.0,60,0.00,,,0.00,84,Wunderground v.1.15,2013-09-02 22:38:00,
2013-09-02 17:43:00,68.7,54.7,29.94,NNW,328,1.0,10.0,61,0.00,,,0.00,69,Wunderground v.1.15,2013-09-02 22:43:00,
2013-09-02 17:48:00,68.3,54.8,29.95,NW,311,1.0,10.0,62,0.00,,,0.00,279,Wunderground v.1.15,2013-09-02 22:48:00,
2013-09-02 17:53:00,68.2,55.1,29.95,NW,323,2.0,4.0,63,0.00,,,0.00,246,Wunderground v.1.15,2013-09-02 22:53:00,
2013-09-02 17:58:00,68.3,54.8,29.95,NW,309,5.0,9.0,62,0.00,,,0.00,229,Wunderground v.1.15,2013-09-02 22:58:00,
2013-09-02 18:03:00,68.3,54.3,29.95,NW,309,7.0,10.0,61,0.00,,,0.00,32,Wunderground v.1.15,2013-09-02 23:03:00,
2013-09-02 18:08:00,68.2,54.7,29.96,WNW,294,3.0,10.0,62,0.00,,,0.00,44,Wunderground v.1.15,2013-09-02 23:08:00,
2013-09-02 18:13:00,68.1,54.6,29.96,NW,323,3.0,6.0,62,0.00,,,0.00,37,Wunderground v.1.15,2013-09-02 23:13:00,
2013-09-02 18:18:00,68.0,54.5,29.96,NW,318,3.0,6.0,62,0.00,,,0.00,32,Wunderground v.1.15,2013-09-02 23:18:00,
2013-09-02 18:23:00,67.9,54.4,29.96,NNW,341,2.0,7.0,62,0.00,,,0.00,32,Wunderground v.1.15,2013-09-02 23:23:00,
2013-09-02 18:28:00,67.7,54.2,29.96,NW,313,4.0,7.0,62,0.00,,,0.00,28,Wunderground v.1.15,2013-09-02 23:28:00,
2013-09-02 18:33:00,67.6,54.1,29.96,NW,321,1.0,8.0,62,0.00,,,0.00,23,Wunderground v.1.15,2013-09-02 23:33:00,
2013-09-02 18:38:00,67.4,54.4,29.96,NW,306,1.0,8.0,63,0.00,,,0.00,25,Wunderground v.1.15,2013-09-02 23:38:00,
2013-09-02 18:43:00,67.2,54.2,29.96,NW,306,0.0,7.0,63,0.00,,,0.00,25,Wunderground v.1.15,2013-09-02 23:43:00,
2013-09-02 18:48:00,67.0,54.4,29.96,NW,306,0.0,7.0,64,0.00,,,0.00,21,Wunderground v.1.15,2013-09-02 23:48:00,
2013-09-02 18:53:00,66.8,54.7,29.96,NW,306,1.0,5.0,65,0.00,,,0.00,19,Wunderground v.1.15,2013-09-02 23:53:00,
2013-09-02 18:58:00,66.6,54.5,29.96,NW,306,2.0,5.0,65,0.00,,,0.00,18,Wunderground v.1.15,2013-09-02 23:58:00,
2013-09-02 19:03:00,66.5,54.4,29.96,NW,306,0.0,2.0,65,0.00,,,0.00,16,Wunderground v.1.15,2013-09-03 00:03:00,
2013-09-02 19:09:00,66.2,54.5,29.96,NW,306,0.0,3.0,66,0.00,,,0.00,14,Wunderground v.1.15,2013-09-03 00:09:00,
2013-09-02 19:14:00,65.9,54.2,29.96,NW,306,1.0,2.0,66,0.00,,,0.00,12,Wunderground v.1.15,2013-09-03 00:14:00,
2013-09-02 19:19:00,65.7,54.4,29.96,NW,306,2.0,3.0,67,0.00,,,0.00,11,Wunderground v.1.15,2013-09-03 00:19:00,
2013-09-02 19:24:00,65.4,54.2,29.96,NW,306,0.0,1.0,67,0.00,,,0.00,7,Wunderground v.1.15,2013-09-03 00:24:00,
2013-09-02 19:29:00,65.1,54.3,29.96,NW,306,0.0,2.0,68,0.00,,,0.00,5,Wunderground v.1.15,2013-09-03 00:29:00,
2013-09-02 19:34:00,64.8,54.4,29.96,NW,306,0.0,0.0,69,0.00,,,0.00,0,Wunderground v.1.15,2013-09-03 00:34:00,
2013-09-02 19:39:00,64.4,54.4,29.97,NW,306,0.0,0.0,70,0.00,,,0.00,0,Wunderground v.1.15,2013-09-03 00:39:00,
2013-09-02 19:44:00,64.0,54.0,29.97,NW,306,0.0,0.0,70,0.00,,,0.00,0,Wunderground v.1.15,2013-09-03 00:44:00,
2013-09-02 19:49:00,63.6,54.0,29.97,NW,306,0.0,0.0,71,0.00,,,0.00,0,Wunderground v.1.15,2013-09-03 00:49:00,
2013-09-02 19:54:00,63.2,54.0,29.97,NW,306,0.0,0.0,72,0.00,,,0.00,0,Wunderground v.1.15,2013-09-03 00:54:00,
2013-09-02 19:59:00,62.7,54.3,29.97,NW,306,0.0,0.0,74,0.00,,,0.00,0,Wunderground v.1.15,2013-09-03 00:59:00,
2013-09-02 20:04:00,62.2,54.2,29.97,NW,306,0.0,0.0,75,0.00,,,0.00,0,Wunderground v.1.15,2013-09-03 01:04:00,
2013-09-02 20:09:00,61.8,53.8,29.97,NW,306,0.0,0.0,75,0.00,,,0.00,0,Wunderground v.1.15,2013-09-03 01:09:00,
2013-09-02 20:14:00,61.3,54.0,29.97,NW,306,0.0,0.0,77,0.00,,,0.00,0,Wunderground v.1.15,2013-09-03 01:14:00,
2013-09-02 20:19:00,60.6,53.7,29.97,NW,306,0.0,0.0,78,0.00,,,0.00,0,Wunderground v.1.15,2013-09-03 01:19:00,
2013-09-02 20:24:00,60.1,53.6,29.98,NW,306,0.0,0.0,79,0.00,,,0.00,0,Wunderground v.1.15,2013-09-03 01:24:00,
2013-09-02 20:29:00,59.6,53.4,29.97,NW,306,0.0,0.0,80,0.00,,,0.00,0,Wunderground v.1.15,2013-09-03 01:29:00,
2013-09-02 20:34:00,58.9,53.1,29.98,NW,306,0.0,0.0,81,0.00,,,0.00,0,Wunderground v.1.15,2013-09-03 01:34:00,
2013-09-02 20:39:00,58.2,52.7,29.98,NW,306,0.0,2.0,82,0.00,,,0.00,0,Wunderground v.1.15,2013-09-03 01:39:00,
2013-09-02 20:45:00,57.7,52.2,29.98,NW,306,0.0,0.0,82,0.00,,,0.00,0,Wunderground v.1.15,2013-09-03 01:45:00,
2013-09-02 20:50:00,57.3,52.5,29.98,NW,306,0.0,0.0,84,0.00,,,0.00,0,Wunderground v.1.15,2013-09-03 01:50:00,
2013-09-02 20:55:00,57.0,52.2,29.98,NW,306,0.0,0.0,84,0.00,,,0.00,0,Wunderground v.1.15,2013-09-03 01:55:00,
2013-09-02 21:00:00,56.6,52.1,29.98,NW,306,0.0,0.0,85,0.00,,,0.00,0,Wunderground v.1.15,2013-09-03 02:00:00,
2013-09-02 21:05:00,56.5,52.4,29.98,NW,306,0.0,0.0,86,0.00,,,0.00,0,Wunderground v.1.15,2013-09-03 02:05:00,
2013-09-02 21:10:00,56.4,52.3,29.99,NW,306,0.0,0.0,86,0.00,,,0.00,0,Wunderground v.1.15,2013-09-03 02:10:00,
2013-09-02 21:15:00,56.3,52.2,29.99,NW,306,0.0,0.0,86,0.00,,,0.00,0,Wunderground v.1.15,2013-09-03 02:15:00,
2013-09-02 21:20:00,56.2,52.1,29.99,NW,306,0.0,0.0,86,0.00,,,0.00,0,Wunderground v.1.15,2013-09-03 02:20:00,
2013-09-02 21:25:00,56.1,52.0,29.99,NW,306,0.0,0.0,86,0.00,,,0.00,0,Wunderground v.1.15,2013-09-03 02:25:00,
2013-09-02 21:30:00,56.0,51.9,29.99,NW,306,0.0,0.0,86,0.00,,,0.00,0,Wunderground v.1.15,2013-09-03 02:30:00,
2013-09-02 21:35:00,56.0,51.9,29.99,NW,306,0.0,2.0,86,0.00,,,0.00,0,Wunderground v.1.15,2013-09-03 02:35:00,
2013-09-02 21:40:00,56.0,51.9,29.99,NW,306,0.0,0.0,86,0.00,,,0.00,0,Wunderground v.1.15,2013-09-03 02:40:00,
2013-09-02 21:45:00,56.1,52.0,29.99,NW,306,0.0,0.0,86,0.00,,,0.00,0,Wunderground v.1.15,2013-09-03 02:45:00,
2013-09-02 21:50:00,56.1,52.0,29.99,NW,306,0.0,0.0,86,0.00,,,0.00,0,Wunderground v.1.15,2013-09-03 02:50:00,
2013-09-02 21:55:00,56.2,52.1,30.00,NW,306,0.0,3.0,86,0.00,,,0.00,0,Wunderground v.1.15,2013-09-03 02:55:00,
2013-09-02 22:00:00,56.3,51.8,29.99,NW,306,0.0,0.0,85,0.00,,,0.00,0,Wunderground v.1.15,2013-09-03 03:00:00,
2013-09-02 22:05:00,56.3,51.8,30.00,NW,306,0.0,1.0,85,0.00,,,0.00,0,Wunderground v.1.15,2013-09-03 03:05:00,
2013-09-02 22:10:00,56.3,51.8,30.00,NW,306,0.0,0.0,85,0.00,,,0.00,0,Wunderground v.1.15,2013-09-03 03:10:00,
2013-09-02 22:15:00,56.3,51.8,30.00,NW,306,2.0,3.0,85,0.00,,,0.00,0,Wunderground v.1.15,2013-09-03 03:15:00,
2013-09-02 22:20:00,56.4,51.9,30.00,NW,306,1.0,2.0,85,0.00,,,0.00,0,Wunderground v.1.15,2013-09-03 03:20:00,
2013-09-02 22:26:00,56.4,51.9,30.00,NW,306,0.0,3.0,85,0.00,,,0.00,0,Wunderground v.1.15,2013-09-03 03:26:00,
2013-09-02 22:31:00,56.3,51.8,30.00,NW,306,0.0,1.0,85,0.00,,,0.00,0,Wunderground v.1.15,2013-09-03 03:31:00,
2013-09-02 22:36:00,56.2,51.7,30.00,NW,306,0.0,2.0,85,0.00,,,0.00,0,Wunderground v.1.15,2013-09-03 03:36:00,
2013-09-02 22:41:00,56.1,51.7,30.00,NW,306,0.0,0.0,85,0.00,,,0.00,0,Wunderground v.1.15,2013-09-03 03:41:00,
2013-09-02 22:46:00,56.0,51.6,30.00,NW,306,0.0,0.0,85,0.00,,,0.00,0,Wunderground v.1.15,2013-09-03 03:46:00,
2013-09-02 22:51:00,55.8,51.4,30.00,NW,306,0.0,0.0,85,0.00,,,0.00,0,Wunderground v.1.15,2013-09-03 03:51:00,
2013-09-02 22:56:00,55.6,51.2,30.00,NW,306,0.0,0.0,85,0.00,,,0.00,0,Wunderground v.1.15,2013-09-03 03:56:00,
2013-09-02 23:01:00,55.4,51.0,30.00,NW,306,0.0,0.0,85,0.00,,,0.00,0,Wunderground v.1.15,2013-09-03 04:01:00,
2013-09-02 23:02:00,55.3,50.9,30.00,NW,306,0.0,0.0,85,0.00,,,0.00,0,Wunderground v.1.15,2013-09-03 04:02:00,
2013-09-02 23:07:00,55.1,50.7,30.00,NW,306,0.0,0.0,85,0.00,,,0.00,0,Wunderground v.1.15,2013-09-03 04:07:00,
2013-09-02 23:12:00,54.9,50.5,30.00,NW,306,0.0,0.0,85,0.00,,,0.00,0,Wunderground v.1.15,2013-09-03 04:12:00,
2013-09-02 23:17:00,54.6,50.2,30.00,NW,306,0.0,0.0,85,0.00,,,0.00,0,Wunderground v.1.15,2013-09-03 04:17:00,
2013-09-02 23:22:00,54.4,50.3,30.00,NW,306,0.0,0.0,86,0.00,,,0.00,0,Wunderground v.1.15,2013-09-03 04:22:00,
2013-09-02 23:27:00,54.1,50.0,30.00,NW,306,0.0,0.0,86,0.00,,,0.00,0,Wunderground v.1.15,2013-09-03 04:27:00,
2013-09-02 23:32:00,54.0,50.2,30.00,NW,306,0.0,0.0,87,0.00,,,0.00,0,Wunderground v.1.15,2013-09-03 04:32:00,
2013-09-02 23:37:00,53.9,50.4,30.00,NW,306,0.0,0.0,88,0.00,,,0.00,0,Wunderground v.1.15,2013-09-03 04:37:00,
2013-09-02 23:42:00,53.7,50.2,30.00,NW,306,0.0,0.0,88,0.00,,,0.00,0,Wunderground v.1.15,2013-09-03 04:42:00,
2013-09-02 23:47:00,53.5,50.0,30.00,NW,306,0.0,0.0,88,0.00,,,0.00,0,Wunderground v.1.15,2013-09-03 04:47:00,
2013-09-02 23:52:00,53.4,49.9,30.00,NW,306,0.0,0.0,88,0.00,,,0.00,0,Wunderground v.1.15,2013-09-03 04:52:00,
2013-09-02 23:57:00,53.2,49.7,30.00,NW,306,0.0,0.0,88,0.00,,,0.00,0,Wunderground v.1.15,2013-09-03 04:57:00,